Time;durP1;ratioP1;P1;durP2;ratioP2;P2;SDS_P1;SDS_P2;PMS_P1;PMS_P2;Temp;Humidity;BMP_temperature;BMP_pressure;BME280_temperature;BME280_humidity;BME280_pressure;Samples;Min_cycle;Max_cycle;Signal;HPM_P1;HPM_P2
2021/05/04 00:01:39;;;;;;;;;;;8.00;77.90;;;;;;5062806;28;20048;-53
2021/05/04 00:04:05;;;;;;;5.20;3.67;;;7.90;78.30;;;;;;5062904;28;19925;-55
2021/05/04 00:06:31;;;;;;;;;;;8.00;77.60;;;;;;5061239;28;20040;-56
2021/05/04 00:08:56;;;;;;;8.20;4.38;;;8.00;78.00;;;;;;5062920;28;19924;-54
2021/05/04 00:11:22;;;;;;;;;;;8.00;77.30;;;;;;5063276;28;20075;-58
2021/05/04 00:13:47;;;;;;;6.18;3.50;;;8.00;77.60;;;;;;5062885;28;19920;-54
2021/05/04 00:16:13;;;;;;;;;;;8.00;77.30;;;;;;5062218;28;20421;-56
2021/05/04 00:18:38;;;;;;;11.02;3.75;;;8.00;76.80;;;;;;5050151;28;19924;-58
2021/05/04 00:21:04;;;;;;;;;;;8.00;77.20;;;;;;5049649;28;20547;-57
2021/05/04 00:23:30;;;;;;;5.30;3.85;;;8.00;77.80;;;;;;5048638;28;20289;-53
2021/05/04 00:25:55;;;;;;;;;;;8.00;77.50;;;;;;5028803;28;20580;-54
2021/05/04 00:28:21;;;;;;;10.20;4.55;;;8.00;77.70;;;;;;5037074;28;20007;-54
2021/05/04 00:30:46;;;;;;;;;;;8.00;77.60;;;;;;5047829;28;20037;-53
2021/05/04 00:33:12;;;;;;;6.30;3.67;;;8.00;77.80;;;;;;5049042;28;19967;-56
2021/05/04 00:35:38;;;;;;;;;;;7.90;77.90;;;;;;5048758;28;20041;-56
2021/05/04 00:38:03;;;;;;;7.88;3.83;;;7.90;78.10;;;;;;5049275;28;20752;-52
2021/05/04 00:40:29;;;;;;;;;;;8.00;77.50;;;;;;5049129;28;20045;-54
2021/05/04 00:42:54;;;;;;;8.98;4.10;;;8.00;77.30;;;;;;5048828;28;19917;-55
2021/05/04 00:45:20;;;;;;;;;;;8.00;78.00;;;;;;5048282;28;20041;-54
2021/05/04 00:47:45;;;;;;;9.13;3.53;;;8.00;78.20;;;;;;5049017;28;19920;-51
2021/05/04 00:50:11;;;;;;;;;;;7.90;77.80;;;;;;5049005;28;20469;-55
2021/05/04 00:52:37;;;;;;;9.30;3.95;;;7.90;78.50;;;;;;5028233;28;19917;-55
2021/05/04 00:55:04;;;;;;;;;;;7.90;78.00;;;;;;5028903;28;20210;-56
2021/05/04 00:57:32;;;;;;;6.75;4.15;;;7.90;77.20;;;;;;5034205;28;19940;-53
2021/05/04 00:59:59;;;;;;;8.40;4.00;;;7.90;77.90;;;;;;5040020;28;20049;-56
2021/05/04 01:02:24;;;;;;;7.35;4.22;;;8.00;77.30;;;;;;5047097;28;20056;-56
2021/05/04 01:04:50;;;;;;;;;;;8.00;77.80;;;;;;5047936;28;20045;-50
2021/05/04 01:07:15;;;;;;;13.43;4.30;;;8.00;77.60;;;;;;5047993;28;19921;-50
2021/05/04 01:09:41;;;;;;;;;;;8.00;77.90;;;;;;5048719;28;20680;-51
2021/05/04 01:12:07;;;;;;;9.90;4.47;;;8.00;77.80;;;;;;5048012;28;20009;-55
2021/05/04 01:14:32;;;;;;;;;;;8.00;77.60;;;;;;5048877;28;20772;-57
2021/05/04 01:16:58;;;;;;;6.32;3.55;;;8.00;77.70;;;;;;5047682;28;19923;-54
2021/05/04 01:19:24;;;;;;;;;;;8.00;78.40;;;;;;5048329;28;20041;-57
2021/05/04 01:21:50;;;;;;;6.45;3.83;;;8.00;78.30;;;;;;5047464;28;19966;-55
2021/05/04 01:24:16;;;;;;;8.80;4.57;;;8.00;77.80;;;;;;5047893;28;20037;-55
2021/05/04 01:26:43;;;;;;;7.15;4.32;;;8.00;77.60;;;;;;5046643;28;20048;-54
2021/05/04 01:29:09;;;;;;;6.68;4.15;;;8.00;78.20;;;;;;5038274;28;20110;-57
2021/05/04 01:31:35;;;;;;;9.07;4.10;;;8.00;77.80;;;;;;5046531;28;20044;-51
2021/05/04 01:34:01;;;;;;;;;;;8.00;77.90;;;;;;5048023;28;20412;-51
2021/05/04 01:36:27;;;;;;;8.23;3.75;;;8.00;77.90;;;;;;5047931;28;20510;-56
2021/05/04 01:38:53;;;;;;;6.82;4.03;;;8.00;78.70;;;;;;5047645;28;20550;-55
2021/05/04 01:41:18;;;;;;;;;;;8.10;78.30;;;;;;5047972;28;20048;-56
2021/05/04 01:43:44;;;;;;;8.35;3.60;;;8.10;78.60;;;;;;5048400;28;20055;-52
2021/05/04 01:46:09;;;;;;;;;;;8.10;78.70;;;;;;5047256;28;20111;-52
2021/05/04 01:48:35;;;;;;;6.32;3.65;;;8.10;78.10;;;;;;5048063;28;19916;-57
2021/05/04 01:51:00;;;;;;;;;;;8.10;78.60;;;;;;5041527;28;20033;-55
2021/05/04 01:53:26;;;;;;;10.35;3.97;;;8.10;77.90;;;;;;5027158;28;20313;-54
2021/05/04 01:55:52;;;;;;;;;;;8.10;77.70;;;;;;5027480;28;20056;-59
2021/05/04 01:58:18;;;;;;;12.35;3.28;;;8.10;78.00;;;;;;5026758;28;19924;-52
2021/05/04 02:00:43;;;;;;;7.07;3.75;;;8.10;78.10;;;;;;5045057;28;20217;-53
2021/05/04 02:03:09;;;;;;;;;;;8.10;78.30;;;;;;5047639;28;20555;-55
2021/05/04 02:05:35;;;;;;;5.95;3.15;;;8.20;77.90;;;;;;5046445;28;19986;-57
2021/05/04 02:08:00;;;;;;;;;;;8.10;78.60;;;;;;5047107;28;20043;-54
2021/05/04 02:10:26;;;;;;;7.05;3.75;;;8.10;78.60;;;;;;5046940;28;19916;-57
2021/05/04 02:12:51;;;;;;;5.63;3.53;;;8.10;78.40;;;;;;5047203;28;20110;-50
2021/05/04 02:15:17;;;;;;;;;;;8.10;78.50;;;;;;5046565;28;20102;-53
2021/05/04 02:17:42;;;;;;;5.50;3.67;;;8.10;79.50;;;;;;5047622;28;20356;-52
2021/05/04 02:20:09;;;;;;;;;;;8.10;78.70;;;;;;5047487;28;20076;-56
2021/05/04 02:22:35;;;;;;;7.57;3.50;;;8.10;79.10;;;;;;5046021;28;19913;-52
2021/05/04 02:25:01;;;;;;;;;;;8.10;79.10;;;;;;5047433;28;20405;-52
2021/05/04 02:27:27;;;;;;;5.55;3.53;;;8.10;79.00;;;;;;5044864;28;19928;-54
2021/05/04 02:29:52;;;;;;;;;;;8.10;79.00;;;;;;5039168;28;20116;-57
2021/05/04 02:32:18;;;;;;;6.05;3.22;;;8.10;79.00;;;;;;5041542;28;19917;-50
2021/05/04 02:34:43;;;;;;;;;;;8.10;79.40;;;;;;5026766;28;20033;-51
2021/05/04 02:37:09;;;;;;;5.32;3.08;;;8.20;78.90;;;;;;5026974;28;19924;-56
2021/05/04 02:39:34;;;;;;;;;;;8.10;79.30;;;;;;5027203;28;20087;-57
2021/05/04 02:42:00;;;;;;;3.92;2.67;;;8.10;79.70;;;;;;5026855;28;19916;-55
2021/05/04 02:44:25;;;;;;;;;;;8.10;79.80;;;;;;5027204;28;20037;-54
2021/05/04 02:46:51;;;;;;;5.07;2.95;;;8.10;79.80;;;;;;5026396;28;20459;-54
2021/05/04 02:49:17;;;;;;;;;;;8.10;79.90;;;;;;5026816;28;20116;-56
2021/05/04 02:51:44;;;;;;;4.47;3.13;;;8.10;79.60;;;;;;5026457;28;20471;-56
2021/05/04 02:54:09;;;;;;;4.15;2.88;;;8.20;79.90;;;;;;5026925;28;20053;-57
2021/05/04 02:56:35;;;;;;;;;;;8.20;79.50;;;;;;5025032;28;20053;-54
2021/05/04 02:59:00;;;;;;;6.07;3.17;;;8.20;79.10;;;;;;5033792;28;19916;-53
2021/05/04 03:01:26;;;;;;;;;;;8.20;79.60;;;;;;5026602;28;20037;-57
2021/05/04 03:03:51;;;;;;;6.57;3.20;;;8.20;79.60;;;;;;5026279;28;19960;-54
2021/05/04 03:06:17;;;;;;;;;;;8.20;79.20;;;;;;5026051;28;20037;-54
2021/05/04 03:08:42;;;;;;;4.53;2.90;;;8.20;79.90;;;;;;5026360;28;20000;-55
2021/05/04 03:11:08;;;;;;;;;;;8.20;79.70;;;;;;5027567;28;20697;-54
2021/05/04 03:13:34;;;;;;;4.40;2.97;;;8.20;79.90;;;;;;5026508;28;19921;-55
2021/05/04 03:16:00;;;;;;;;;;;8.30;79.10;;;;;;5026085;28;20045;-53
2021/05/04 03:18:25;;;;;;;6.55;2.95;;;8.30;79.10;;;;;;5025343;28;19916;-56
2021/05/04 03:20:52;;;;;;;;;;;8.30;79.20;;;;;;5025734;28;20042;-55
2021/05/04 03:23:19;;;;;;;5.05;2.83;;;8.30;79.00;;;;;;5026757;28;19917;-56
2021/05/04 03:25:46;;;;;;;6.57;3.67;;;8.40;78.20;;;;;;5026138;28;20084;-55
2021/05/04 03:28:12;;;;;;;4.60;2.75;;;8.40;78.10;;;;;;5024715;28;20441;-51
2021/05/04 03:30:38;;;;;;;5.68;2.50;;;8.40;77.30;;;;;;5025626;28;20434;-59
2021/05/04 03:33:04;;;;;;;;;;;8.40;77.10;;;;;;5026467;28;20087;-56
2021/05/04 03:35:30;;;;;;;6.97;3.05;;;8.40;76.70;;;;;;5026170;28;20493;-52
2021/05/04 03:37:55;;;;;;;;;;;8.50;76.50;;;;;;5027243;28;20037;-56
2021/05/04 03:40:21;;;;;;;3.92;1.90;;;8.50;76.50;;;;;;5026294;28;19925;-54
2021/05/04 03:42:46;;;;;;;;;;;8.40;76.70;;;;;;5026968;28;20048;-54
2021/05/04 03:45:13;;;;;;;4.90;2.17;;;8.50;76.40;;;;;;5025674;28;19924;-54
2021/05/04 03:47:40;;;;;;;7.70;3.20;;;8.50;76.80;;;;;;5026456;28;20548;-54
2021/05/04 03:50:08;;;;;;;7.13;2.78;;;8.50;75.90;;;;;;5025126;28;20045;-54
2021/05/04 03:52:34;;;;;;;3.85;2.40;;;8.50;76.90;;;;;;5027063;28;20094;-56
2021/05/04 03:54:59;;;;;;;;;;;8.50;77.40;;;;;;5030247;28;20045;-57
2021/05/04 03:57:25;;;;;;;5.28;2.72;;;8.40;79.10;;;;;;5027294;28;19920;-53
2021/05/04 03:59:51;;;;;;;;;;;8.40;79.00;;;;;;5029851;28;20030;-59
2021/05/04 04:02:17;;;;;;;7.95;2.70;;;8.40;80.50;;;;;;5025489;28;20008;-57
2021/05/04 04:04:43;;;;;;;6.80;2.58;;;8.30;82.30;;;;;;5029104;28;20521;-55
2021/05/04 04:07:09;;;;;;;;;;;8.10;85.50;;;;;;5029339;28;20132;-55
2021/05/04 04:09:34;;;;;;;3.78;2.50;;;8.00;87.80;;;;;;5030321;28;20384;-57
2021/05/04 04:12:00;;;;;;;;;;;7.90;87.80;;;;;;5030387;28;20030;-56
2021/05/04 04:14:25;;;;;;;14.73;2.83;;;7.80;89.60;;;;;;5029623;28;19921;-56
2021/05/04 04:16:51;;;;;;;;;;;7.60;91.30;;;;;;5028232;28;20475;-57
2021/05/04 04:19:16;;;;;;;4.35;2.60;;;7.40;93.20;;;;;;5029403;28;19924;-54
2021/05/04 04:21:42;;;;;;;;;;;7.20;94.30;;;;;;5030097;28;20038;-53
2021/05/04 04:24:08;;;;;;;5.90;2.85;;;7.20;94.90;;;;;;5028732;28;19916;-55
2021/05/04 04:26:34;;;;;;;3.92;2.70;;;7.10;95.50;;;;;;5028886;28;20041;-48
2021/05/04 04:28:59;;;;;;;;;;;6.90;96.90;;;;;;5030144;28;21407;-50
2021/05/04 04:31:25;;;;;;;6.13;3.50;;;6.90;98.00;;;;;;5028800;28;20304;-51
2021/05/04 04:33:50;;;;;;;;;;;6.70;99.00;;;;;;5029855;28;20065;-53
2021/05/04 04:36:15;;;;;;;4.55;3.08;;;6.60;99.90;;;;;;5029436;28;19924;-52
2021/05/04 04:38:41;;;;;;;;;;;6.50;99.90;;;;;;5029827;28;20108;-58
2021/05/04 04:41:07;;;;;;;6.43;3.10;;;6.40;99.90;;;;;;5029140;28;19917;-51
2021/05/04 04:43:32;;;;;;;;;;;6.40;99.90;;;;;;5028735;28;20146;-54
2021/05/04 04:45:58;;;;;;;4.20;2.75;;;6.30;99.90;;;;;;5029391;28;19943;-56
2021/05/04 04:48:23;;;;;;;;;;;6.30;99.90;;;;;;5029993;28;20043;-56
2021/05/04 04:50:49;;;;;;;5.95;2.88;;;6.20;99.90;;;;;;5029548;28;19964;-57
2021/05/04 04:53:14;;;;;;;;;;;6.20;99.90;;;;;;5028572;28;20152;-49
2021/05/04 04:55:41;;;;;;;6.05;3.33;;;6.20;99.90;;;;;;5027365;28;20373;-54
2021/05/04 04:58:07;;;;;;;10.13;2.95;;;6.10;99.90;;;;;;5024747;28;20037;-48
2021/05/04 05:00:32;;;;;;;;;;;6.10;99.90;;;;;;5027803;28;20638;-52
2021/05/04 05:02:58;;;;;;;8.85;3.05;;;6.10;99.90;;;;;;5028865;28;19921;-57
2021/05/04 05:05:23;;;;;;;;;;;6.10;99.90;;;;;;5027654;28;20120;-57
2021/05/04 05:07:49;;;;;;;6.18;2.95;;;6.10;99.90;;;;;;5028442;28;19917;-58
2021/05/04 05:10:14;;;;;;;;;;;6.00;99.90;;;;;;5029166;28;20083;-53
2021/05/04 05:12:40;;;;;;;4.78;2.92;;;6.00;99.90;;;;;;5028909;28;19921;-54
2021/05/04 05:15:06;;;;;;;;;;;6.00;99.90;;;;;;5028824;28;20405;-57
2021/05/04 05:17:32;;;;;;;6.30;2.55;;;5.90;99.90;;;;;;5026997;28;19921;-52
2021/05/04 05:19:58;;;;;;;12.98;4.05;;;5.90;99.90;;;;;;5028567;28;20197;-51
2021/05/04 05:22:25;;;;;;;7.47;3.55;;;5.90;99.90;;;;;;5028171;28;20087;-52
2021/05/04 05:24:51;;;;;;;8.05;3.22;;;5.90;99.90;;;;;;5028240;28;20634;-51
2021/05/04 05:27:16;;;;;;;;;;;5.80;99.90;;;;;;5028705;28;20509;-54
2021/05/04 05:29:42;;;;;;;3.85;2.88;;;5.90;99.90;;;;;;5026747;28;19924;-51
2021/05/04 05:32:07;;;;;;;;;;;5.80;99.90;;;;;;5027431;28;20052;-52
2021/05/04 05:34:33;;;;;;;7.88;3.35;;;5.80;99.90;;;;;;5026499;28;19928;-56
2021/05/04 05:36:59;;;;;;;5.93;3.63;;;5.90;99.90;;;;;;5026265;28;20071;-55
2021/05/04 05:39:24;;;;;;;5.60;3.28;;;5.80;99.90;;;;;;5028567;28;20041;-58
2021/05/04 05:41:50;;;;;;;;;;;5.80;99.90;;;;;;5028732;28;20627;-58
2021/05/04 05:44:17;;;;;;;5.35;3.45;;;5.70;99.90;;;;;;5027444;28;19960;-55
2021/05/04 05:46:42;;;;;;;11.82;3.88;;;5.70;99.90;;;;;;5027170;28;20055;-56
2021/05/04 05:49:09;;;;;;;;;;;5.70;99.90;;;;;;5028545;28;20037;-56
2021/05/04 05:51:35;;;;;;;7.28;3.53;;;5.70;99.90;;;;;;5027639;28;19916;-54
2021/05/04 05:54:01;;;;;;;;;;;5.70;99.90;;;;;;5027400;28;20048;-54
2021/05/04 05:56:27;;;;;;;5.00;3.40;;;5.70;99.90;;;;;;5027362;28;19924;-53
2021/05/04 05:58:52;;;;;;;4.97;3.17;;;5.70;99.90;;;;;;5025536;28;20113;-54
2021/05/04 06:01:18;;;;;;;6.82;3.22;;;5.80;99.90;;;;;;5024956;28;20038;-53
2021/05/04 06:03:43;;;;;;;;;;;5.90;99.90;;;;;;5027509;28;20083;-52
2021/05/04 06:06:09;;;;;;;5.05;2.83;;;5.90;99.90;;;;;;5027101;28;19925;-53
2021/05/04 06:08:35;;;;;;;;;;;5.90;99.90;;;;;;5027581;28;20091;-57
2021/05/04 06:11:00;;;;;;;7.05;2.80;;;5.90;99.90;;;;;;5027062;28;19933;-52
2021/05/04 06:13:26;;;;;;;4.78;3.00;;;5.90;99.90;;;;;;5027526;28;20121;-52
2021/05/04 06:15:51;;;;;;;4.97;2.78;;;6.00;99.90;;;;;;5025813;28;20037;-54
2021/05/04 06:18:17;;;;;;;;;;;6.00;99.90;;;;;;5027607;28;20052;-58
2021/05/04 06:20:43;;;;;;;6.80;3.25;;;6.00;99.90;;;;;;5027348;28;20381;-52
2021/05/04 06:23:08;;;;;;;;;;;6.10;99.90;;;;;;5027952;28;20587;-50
2021/05/04 06:25:34;;;;;;;6.15;2.78;;;6.10;99.90;;;;;;5026966;28;19963;-55
2021/05/04 06:28:05;;;;;;;7.60;2.95;;;6.10;99.90;;;;;;5027029;28;20052;-49
2021/05/04 06:30:35;;;;;;;7.40;3.47;;;6.20;99.90;;;;;;5026053;28;20030;-54
2021/05/04 06:33:08;;;;;;;25.85;5.80;;;6.20;99.90;;;;;;5019604;28;20056;-52
2021/05/04 06:35:36;;;;;;;15.57;4.53;;;6.30;99.90;;;;;;5026233;28;20112;-57
2021/05/04 06:38:04;;;;;;;10.25;3.63;;;6.40;99.90;;;;;;5027880;28;20041;-55
2021/05/04 06:40:30;;;;;;;11.23;3.65;;;6.40;99.90;;;;;;5026990;28;20076;-57
2021/05/04 06:42:56;;;;;;;7.72;2.80;;;6.40;99.90;;;;;;5026479;28;20052;-54
2021/05/04 06:45:21;;;;;;;;;;;6.40;99.90;;;;;;5027099;28;20037;-62
2021/05/04 06:47:47;;;;;;;8.75;2.10;;;6.40;99.90;;;;;;5027483;28;20020;-51
2021/05/04 06:50:13;;;;;;;;;;;6.40;99.90;;;;;;5027945;28;20132;-55
2021/05/04 06:52:38;;;;;;;3.78;2.00;;;6.50;99.90;;;;;;5026477;28;19943;-55
2021/05/04 06:55:04;;;;;;;;;;;6.60;99.90;;;;;;5030607;28;20072;-58
2021/05/04 06:57:30;;;;;;;4.18;2.22;;;6.50;99.90;;;;;;5029465;28;19968;-67
2021/05/04 06:59:55;;;;;;;;;;;6.50;99.90;;;;;;5024695;28;20041;-53
2021/05/04 07:02:21;;;;;;;5.57;2.42;;;6.40;99.90;;;;;;5023539;28;19921;-55
2021/05/04 07:04:46;;;;;;;;;;;6.40;99.90;;;;;;5025173;28;20049;-53
2021/05/04 07:07:12;;;;;;;5.93;2.08;;;6.40;99.90;;;;;;5026077;28;19960;-56
2021/05/04 07:09:37;;;;;;;;;;;6.40;99.90;;;;;;5029355;28;20396;-58
2021/05/04 07:12:04;;;;;;;4.40;2.03;;;6.40;99.90;;;;;;5045365;28;19920;-56
2021/05/04 07:14:31;;;;;;;2.22;1.58;;;6.40;99.90;;;;;;5045612;28;20048;-57
2021/05/04 07:17:00;;;;;;;11.88;2.70;;;6.40;99.90;;;;;;5044187;28;20041;-57
2021/05/04 07:19:26;;;;;;;3.25;1.60;;;6.50;99.90;;;;;;5045832;28;20037;-54
2021/05/04 07:21:53;;;;;;;5.60;1.80;;;6.50;99.90;;;;;;5039537;28;20068;-58
2021/05/04 07:24:19;;;;;;;3.55;1.60;;;6.50;99.90;;;;;;5016213;28;20037;-59
2021/05/04 07:26:44;;;;;;;;;;;6.50;99.90;;;;;;5024833;28;20042;-63
2021/05/04 07:29:10;;;;;;;2.45;1.40;;;6.50;99.90;;;;;;5031146;28;19982;-59
2021/05/04 07:31:36;;;;;;;;;;;6.50;99.90;;;;;;5032116;28;20120;-61
2021/05/04 07:34:02;;;;;;;2.60;1.67;;;6.60;99.90;;;;;;5031097;28;19917;-61
2021/05/04 07:36:29;;;;;;;;;;;6.70;99.90;;;;;;5047684;28;20040;-65
2021/05/04 07:38:55;;;;;;;10.90;2.28;;;6.70;99.90;;;;;;5036586;28;20503;-62
2021/05/04 07:41:21;;;;;;;;;;;6.70;99.90;;;;;;5031328;28;20049;-62
2021/05/04 07:43:46;;;;;;;2.35;1.33;;;6.80;99.90;;;;;;5039964;28;19991;-63
2021/05/04 07:46:12;;;;;;;2.65;1.45;;;6.80;99.90;;;;;;5048782;28;20036;-61
2021/05/04 07:48:38;;;;;;;2.83;1.60;;;6.80;99.90;;;;;;5048645;28;20175;-63
2021/05/04 07:51:05;;;;;;;;;;;6.70;99.90;;;;;;5042177;28;20079;-57
2021/05/04 07:53:31;;;;;;;5.50;1.50;;;6.70;99.90;;;;;;5030213;28;19998;-58
2021/05/04 07:55:56;;;;;;;1.98;1.30;;;6.70;99.90;;;;;;5029275;28;20073;-59
2021/05/04 07:58:22;;;;;;;;;;;6.80;99.90;;;;;;5031113;28;20743;-55
2021/05/04 08:00:47;;;;;;;1.52;1.20;;;6.70;99.90;;;;;;5030850;28;19916;-59
2021/05/04 08:03:14;;;;;;;3.35;1.38;;;6.60;99.90;;;;;;5029866;28;20732;-59
2021/05/04 08:05:40;;;;;;;2.63;1.02;;;6.50;99.90;;;;;;5028929;28;20041;-58
2021/05/04 08:08:05;;;;;;;;;;;6.40;99.90;;;;;;5033110;28;20029;-57
2021/05/04 08:10:31;;;;;;;2.85;1.63;;;6.30;99.90;;;;;;5048233;28;20365;-57
2021/05/04 08:12:57;;;;;;;;;;;6.30;99.90;;;;;;5029995;28;20773;-56
2021/05/04 08:15:23;;;;;;;1.40;1.05;;;6.30;99.90;;;;;;5028080;28;20015;-55
2021/05/04 08:17:57;;;;;;;;;;;6.30;99.90;;;;;;5049170;28;20071;-57
2021/05/04 08:20:26;;;;;;;2.33;1.55;;;6.30;99.90;;;;;;5049657;28;19991;-57
2021/05/04 08:22:52;;;;;;;2.92;1.65;;;6.40;99.90;;;;;;5049478;28;20056;-58
2021/05/04 08:25:18;;;;;;;;;;;6.50;99.90;;;;;;5050836;28;20045;-56
2021/05/04 08:27:43;;;;;;;4.93;2.00;;;6.50;99.90;;;;;;5038023;28;19921;-55
2021/05/04 08:30:09;;;;;;;;;;;6.50;99.90;;;;;;5035670;28;20040;-55
2021/05/04 08:32:35;;;;;;;2.95;1.50;;;6.40;99.90;;;;;;5036628;22;20042;-57
2021/05/04 08:35:00;;;;;;;;;;;6.40;99.90;;;;;;5005471;28;20391;-57
2021/05/04 08:37:26;;;;;;;1.67;1.30;;;6.40;99.90;;;;;;5007137;28;19925;-58
2021/05/04 08:39:51;;;;;;;;;;;6.50;99.90;;;;;;5018899;28;20145;-59
2021/05/04 08:42:17;;;;;;;2.58;1.50;;;6.60;99.90;;;;;;5018876;28;19917;-60
2021/05/04 08:44:45;;;;;;;;;;;6.70;99.90;;;;;;5007273;28;20486;-59
2021/05/04 08:47:11;;;;;;;1.85;1.48;;;6.80;99.90;;;;;;5033054;28;19920;-60
2021/05/04 08:49:38;;;;;;;3.92;2.58;;;6.80;99.90;;;;;;5027459;28;20050;-60
2021/05/04 08:52:04;;;;;;;5.20;3.67;;;6.80;99.90;;;;;;5043230;28;20041;-59
2021/05/04 08:54:29;;;;;;;;;;;6.80;99.90;;;;;;5046276;28;20041;-59
2021/05/04 08:56:55;;;;;;;2.22;1.48;;;6.70;99.90;;;;;;5039535;28;19921;-60
2021/05/04 08:59:20;;;;;;;;;;;6.60;99.90;;;;;;5035147;28;20122;-60
2021/05/04 09:01:46;;;;;;;4.97;2.50;;;6.60;99.90;;;;;;5039586;28;19978;-59
2021/05/04 09:04:26;;;;;;;;;;;6.60;99.90;;;;;;5030982;28;20045;-59
2021/05/04 09:06:54;;;;;;;9.35;5.85;;;6.60;99.90;;;;;;5038037;28;19924;-58
2021/05/04 09:09:27;;;;;;;2.80;1.52;;;6.70;99.90;;;;;;5032717;28;20045;-59
2021/05/04 09:12:03;;;;;;;2.45;1.35;;;6.80;99.90;;;;;;5027572;28;20106;-58
2021/05/04 09:22:44;;;;;;;4.63;2.05;;;7.30;99.90;;;;;;5027539;28;20052;-59
2021/05/04 09:25:34;;;;;;;3.40;1.88;;;7.30;99.90;;;;;;5024826;28;20094;-59
2021/05/04 09:28:09;;;;;;;6.00;2.10;;;7.30;99.90;;;;;;5021529;28;20057;-62
2021/05/04 09:30:35;;;;;;;3.78;2.10;;;7.40;99.90;;;;;;5026145;28;20136;-60
2021/05/04 09:33:09;;;;;;;2.67;1.77;;;7.70;99.90;;;;;;5008912;28;20080;-62
2021/05/04 09:35:35;;;;;;;3.40;1.90;;;8.20;99.90;;;;;;5025499;28;20049;-60
2021/05/04 09:38:09;;;;;;;6.25;4.55;;;8.20;99.90;;;;;;5025820;28;20685;-61
2021/05/04 09:40:36;;;;;;;4.93;2.72;;;8.20;99.90;;;;;;5026060;28;20076;-60
2021/05/04 09:43:17;;;;;;;2.80;2.03;;;8.10;99.90;;;;;;5026714;28;20031;-56
2021/05/04 09:45:43;;;;;;;3.30;1.95;;;8.10;99.90;;;;;;5024736;28;20072;-59
2021/05/04 09:48:14;;;;;;;9.85;5.07;;;8.00;99.90;;;;;;5027602;28;20037;-60
2021/05/04 09:51:11;;;;;;;2.45;1.77;;;8.00;99.90;;;;;;5029707;28;20037;-59
2021/05/04 09:56:03;;;;;;;;;;;8.30;99.90;;;;;;5044779;28;20052;-59
2021/05/04 09:58:32;;;;;;;10.48;2.10;;;8.40;99.90;;;;;;5026463;28;19966;-60
2021/05/04 10:00:58;;;;;;;5.57;2.33;;;8.60;99.90;;;;;;5025533;28;20045;-62
2021/05/04 10:03:25;;;;;;;;;;;8.60;99.90;;;;;;5037855;28;20489;-62
2021/05/04 10:05:51;;;;;;;3.20;1.90;;;8.70;99.90;;;;;;5035236;28;20301;-63
2021/05/04 10:08:17;;;;;;;9.93;2.00;;;8.90;99.90;;;;;;5024923;28;20071;-62
2021/05/04 10:10:44;;;;;;;;;;;9.30;99.90;;;;;;5027048;28;20045;-61
2021/05/04 10:13:11;;;;;;;8.15;4.53;;;9.50;99.90;;;;;;5025370;28;20003;-62
2021/05/04 10:15:37;;;;;;;2.17;1.35;;;9.50;99.90;;;;;;5023502;28;20037;-63
2021/05/04 10:18:03;;;;;;;;;;;9.70;99.90;;;;;;5062168;22;20037;-70
2021/05/04 10:20:30;;;;;;;7.50;1.85;;;9.80;99.90;;;;;;5048446;28;19927;-68
2021/05/04 10:23:00;;;;;;;3.88;1.48;;;9.90;99.90;;;;;;5029302;28;20217;-70
2021/05/04 10:25:26;;;;;;;2.50;1.38;;;9.90;99.90;;;;;;5011194;28;20419;-69
2021/05/04 10:27:53;;;;;;;;;;;10.00;99.90;;;;;;5011825;28;20037;-69
2021/05/04 10:30:20;;;;;;;7.07;4.28;;;9.80;99.90;;;;;;5010662;28;19917;-70
2021/05/04 10:32:51;;;;;;;2.00;1.30;;;10.00;99.90;;;;;;5032237;28;20041;-68
2021/05/04 10:35:31;;;;;;;4.03;1.70;;;9.90;99.50;;;;;;5050531;28;20028;-67
2021/05/04 10:38:23;;;;;;;3.45;1.30;;;9.80;99.50;;;;;;5068923;28;20124;-70
2021/05/04 10:41:05;;;;;;;3.45;1.67;;;10.10;99.80;;;;;;5052055;28;20202;-68
2021/05/04 10:43:33;;;;;;;4.78;2.05;;;9.90;99.90;;;;;;5031566;28;20353;-69
2021/05/04 10:46:00;;;;;;;1.95;1.25;;;9.60;99.90;;;;;;5026528;28;20045;-70
2021/05/04 10:48:35;;;;;;;10.02;5.72;;;9.40;99.90;;;;;;5030657;28;20538;-67
2021/05/04 10:51:01;;;;;;;2.80;1.50;;;9.50;99.90;;;;;;5037461;28;20533;-69
2021/05/04 10:53:47;;;;;;;2.67;1.08;;;9.70;99.90;;;;;;5048094;28;20048;-70
2021/05/04 10:56:15;;;;;;;2.03;1.58;;;9.80;99.90;;;;;;5030026;28;20072;-69
2021/05/04 10:58:47;;;;;;;2.97;1.40;;;9.80;99.90;;;;;;5030769;28;20047;-68
2021/05/04 11:01:17;;;;;;;7.43;2.67;;;9.90;99.90;;;;;;5033935;28;20082;-69
2021/05/04 11:03:48;;;;;;;3.63;1.70;;;9.80;99.90;;;;;;5039627;28;20094;-68
2021/05/04 11:06:35;;;;;;;4.90;1.38;;;9.70;99.90;;;;;;5044125;28;20049;-69
2021/05/04 11:09:04;;;;;;;3.10;1.27;;;9.60;99.90;;;;;;5038457;28;20047;-68
2021/05/04 11:11:47;;;;;;;2.10;1.00;;;9.30;99.90;;;;;;5058302;28;20052;-68
2021/05/04 11:14:16;;;;;;;2.65;1.40;;;9.00;99.90;;;;;;5033947;28;20032;-69
2021/05/04 11:16:46;;;;;;;3.70;1.30;;;8.90;99.90;;;;;;5054061;28;20057;-68
2021/05/04 11:19:33;;;;;;;2.28;1.30;;;9.10;99.90;;;;;;5027122;28;20068;-67
2021/05/04 11:22:00;;;;;;;10.80;5.50;;;9.30;99.90;;;;;;5030030;28;20125;-69
2021/05/04 11:24:29;;;;;;;4.70;1.65;;;9.50;99.90;;;;;;5029558;28;20087;-69
2021/05/04 11:26:57;;;;;;;4.35;1.70;;;9.60;99.90;;;;;;5048219;28;20136;-68
2021/05/04 11:29:30;;;;;;;2.75;1.48;;;9.50;99.90;;;;;;5030281;28;20037;-69
2021/05/04 11:32:13;;;;;;;2.10;1.10;;;9.50;99.90;;;;;;5029040;28;20041;-71
2021/05/04 11:34:46;;;;;;;2.25;1.38;;;9.40;99.90;;;;;;5038333;28;20052;-69
2021/05/04 11:37:27;;;;;;;4.97;1.55;;;9.20;99.90;;;;;;5046667;28;20053;-68
2021/05/04 11:39:59;;;;;;;4.97;1.38;;;9.20;99.90;;;;;;5038815;28;20094;-69
2021/05/04 11:42:36;;;;;;;3.17;1.45;;;9.20;99.90;;;;;;5038345;28;20045;-69
2021/05/04 11:45:05;;;;;;;4.43;3.03;;;9.20;99.90;;;;;;5034920;28;20041;-69
2021/05/04 11:47:31;;;;;;;2.38;1.90;;;9.20;99.90;;;;;;5011435;28;20053;-67
2021/05/04 11:50:08;;;;;;;4.25;1.67;;;9.30;99.90;;;;;;5021632;28;20044;-68
2021/05/04 11:52:35;;;;;;;5.55;1.48;;;9.50;99.90;;;;;;5029664;28;20251;-67
2021/05/04 11:55:22;;;;;;;3.78;2.38;;;9.40;99.90;;;;;;5026638;28;20060;-67
2021/05/04 11:57:53;;;;;;;4.28;1.38;;;9.40;99.90;;;;;;5038871;28;20045;-68
2021/05/04 12:00:21;;;;;;;3.88;1.65;;;9.30;99.90;;;;;;5020190;28;20189;-66
2021/05/04 12:02:49;;;;;;;6.53;2.03;;;9.30;99.90;;;;;;5042663;28;20033;-67
2021/05/04 12:05:29;;;;;;;2.17;1.20;;;9.40;99.90;;;;;;5045347;28;20544;-67
2021/05/04 12:07:57;;;;;;;1.90;1.00;;;9.50;99.90;;;;;;5039230;28;20048;-66
2021/05/04 12:10:26;;;;;;;1.13;0.90;;;9.70;99.90;;;;;;5014361;28;20048;-66
2021/05/04 12:12:57;;;;;;;2.00;1.33;;;9.90;99.90;;;;;;5037239;28;20037;-66
2021/05/04 12:15:28;;;;;;;1.42;1.08;;;9.70;99.90;;;;;;5038968;28;20045;-67
2021/05/04 12:17:59;;;;;;;9.05;2.10;;;9.70;99.90;;;;;;5045635;28;20051;-65
2021/05/04 12:20:28;;;;;;;5.60;1.35;;;10.10;99.90;;;;;;5053640;28;20072;-65
2021/05/04 12:22:59;;;;;;;5.57;1.77;;;10.40;99.90;;;;;;5045593;28;20036;-68
2021/05/04 12:26:11;;;;;;;7.80;1.55;;;10.50;99.90;;;;;;5024061;28;20120;-66
2021/05/04 12:28:37;;;;;;;2.90;1.23;;;10.50;99.70;;;;;;4981027;28;20061;-67
2021/05/04 12:31:11;;;;;;;8.60;1.55;;;10.40;99.60;;;;;;5013469;28;20132;-67
2021/05/04 12:33:39;;;;;;;2.58;1.73;;;10.30;99.70;;;;;;5031311;28;20036;-67
2021/05/04 12:36:13;;;;;;;4.13;1.27;;;10.10;99.10;;;;;;5045186;28;20492;-67
2021/05/04 12:38:52;;;;;;;4.55;1.00;;;10.00;99.80;;;;;;5038026;28;20476;-66
2021/05/04 12:41:24;;;;;;;2.70;1.08;;;9.90;99.90;;;;;;5045439;28;20032;-68
2021/05/04 12:44:09;;;;;;;4.45;1.05;;;9.80;99.90;;;;;;5033857;28;20059;-68
2021/05/04 12:46:40;;;;;;;4.15;1.45;;;9.90;99.90;;;;;;5044329;28;20037;-66
2021/05/04 12:49:05;;;;;;;3.97;1.10;;;9.80;99.90;;;;;;5057709;28;20489;-67
2021/05/04 12:51:32;;;;;;;;;;;9.80;99.90;;;;;;5062195;28;20066;-66
2021/05/04 12:54:17;;;;;;;6.00;2.00;;;9.80;99.90;;;;;;5052665;28;19912;-66
2021/05/04 12:56:44;;;;;;;15.05;6.32;;;10.10;99.90;;;;;;5044516;28;20084;-68
2021/05/04 12:59:16;;;;;;;11.70;4.25;;;10.20;99.90;;;;;;5044350;28;20068;-67
2021/05/04 13:01:45;;;;;;;10.13;1.70;;;10.20;99.90;;;;;;5052475;28;20043;-67
2021/05/04 13:04:27;;;;;;;5.07;1.60;;;10.20;99.80;;;;;;5045039;28;20041;-66
2021/05/04 13:07:01;;;;;;;7.82;1.77;;;10.10;99.60;;;;;;5052138;28;20484;-66
2021/05/04 13:09:32;;;;;;;13.10;2.28;;;9.80;99.90;;;;;;5070039;28;20158;-67
2021/05/04 13:31:32;;;;;;;16.08;3.38;;;9.40;99.90;;;;;;5050683;28;20047;-66
2021/05/04 13:33:58;;;;;;;20.23;3.35;;;9.60;99.90;;;;;;5041906;28;20025;-66
2021/05/04 13:36:23;;;;;;;;;;;9.70;99.90;;;;;;5043665;28;20515;-68
2021/05/04 13:39:10;;;;;;;12.65;3.35;;;9.80;99.90;;;;;;5048542;28;19924;-67
2021/05/04 13:49:51;;;;;;;36.90;3.75;;;10.30;99.90;;;;;;5040168;28;20067;-67
2021/05/04 13:52:17;;;;;;;;;;;10.40;99.90;;;;;;5029204;28;20068;-68
2021/05/04 13:54:44;;;;;;;20.23;2.50;;;10.60;99.70;;;;;;5049029;28;19913;-68
2021/05/04 13:57:15;;;;;;;;;;;10.70;98.50;;;;;;5038830;28;20076;-66
2021/05/04 13:59:41;;;;;;;23.80;4.20;;;10.80;97.10;;;;;;5032155;28;19917;-66
2021/05/04 14:02:12;;;;;;;;;;;10.80;94.90;;;;;;5052392;28;20060;-68